createdAt,value
2018-07-26T00:01:48.197Z,23.70
2018-07-26T00:04:16.383Z,23.70
2018-07-26T00:06:44.537Z,23.60
2018-07-26T00:09:12.678Z,23.50
2018-07-26T00:11:41.100Z,23.50
2018-07-26T00:14:09.354Z,23.30
2018-07-26T00:16:37.510Z,23.30
2018-07-26T00:19:06.542Z,23.20
2018-07-26T00:21:34.673Z,23.10
2018-07-26T00:24:02.970Z,23.10
2018-07-26T00:26:31.088Z,23.00
2018-07-26T00:28:59.229Z,23.00
2018-07-26T00:31:27.353Z,22.90
2018-07-26T00:33:55.658Z,22.90
2018-07-26T00:36:23.826Z,22.80
2018-07-26T00:38:51.962Z,22.70
2018-07-26T00:41:20.129Z,22.70
2018-07-26T00:43:48.237Z,22.60
2018-07-26T00:46:16.362Z,22.50
2018-07-26T00:48:44.544Z,22.40
2018-07-26T00:51:12.725Z,22.40
2018-07-26T00:53:40.874Z,22.40
2018-07-26T00:56:09.005Z,22.30
2018-07-26T00:58:37.154Z,22.30
2018-07-26T01:01:05.281Z,22.20
2018-07-26T01:03:33.526Z,22.10
2018-07-26T01:06:01.696Z,22.10
2018-07-26T01:08:30.077Z,22.00
2018-07-26T01:10:58.206Z,22.00
2018-07-26T01:13:26.322Z,22.00
2018-07-26T01:15:54.466Z,22.00
2018-07-26T01:18:22.585Z,22.00
2018-07-26T01:20:50.731Z,22.00
2018-07-26T01:23:18.898Z,22.00
2018-07-26T01:25:47.055Z,22.10
2018-07-26T01:28:15.187Z,22.10
2018-07-26T01:30:43.304Z,22.00
2018-07-26T01:33:12.541Z,22.10
2018-07-26T01:35:40.996Z,22.10
2018-07-26T01:38:09.085Z,22.20
2018-07-26T01:40:37.361Z,22.10
2018-07-26T01:43:16.848Z,22.20
2018-07-26T01:45:44.961Z,22.20
2018-07-26T01:48:13.241Z,22.20
2018-07-26T01:50:41.349Z,22.20
2018-07-26T01:53:09.446Z,22.20
2018-07-26T01:55:37.575Z,22.10
2018-07-26T01:58:05.680Z,22.10
2018-07-26T02:00:33.923Z,22.10
2018-07-26T02:03:02.023Z,22.10
2018-07-26T02:05:30.261Z,22.10
2018-07-26T02:07:58.374Z,22.20
2018-07-26T02:10:26.482Z,22.20
2018-07-26T02:12:54.670Z,22.20
2018-07-26T02:15:22.794Z,22.30
2018-07-26T02:17:50.902Z,22.30
2018-07-26T02:20:19.013Z,22.30
2018-07-26T02:22:47.108Z,22.40
2018-07-26T02:25:15.363Z,22.30
2018-07-26T02:27:43.481Z,22.30
2018-07-26T02:30:11.610Z,22.30
2018-07-26T02:32:39.705Z,22.30
2018-07-26T02:35:07.816Z,22.30
2018-07-26T02:37:36.005Z,22.20
2018-07-26T02:40:04.135Z,22.20
2018-07-26T02:42:32.234Z,22.20
2018-07-26T02:45:00.341Z,22.10
2018-07-26T02:47:28.584Z,22.10
2018-07-26T02:49:56.696Z,22.10
2018-07-26T02:52:24.969Z,22.10
2018-07-26T02:54:53.066Z,22.00
2018-07-26T02:57:21.319Z,22.00
2018-07-26T02:59:49.413Z,22.00
2018-07-26T03:02:17.534Z,21.80
2018-07-26T03:04:45.657Z,21.90
2018-07-26T03:07:13.912Z,21.80
2018-07-26T03:09:42.031Z,21.90
2018-07-26T03:12:10.429Z,21.80
2018-07-26T03:14:42.352Z,21.80
2018-07-26T03:17:10.917Z,21.80
2018-07-26T03:19:39.022Z,21.70
2018-07-26T03:22:07.243Z,21.70
2018-07-26T03:24:35.345Z,21.60
2018-07-26T03:27:03.490Z,21.70
2018-07-26T03:29:31.596Z,21.60
2018-07-26T03:31:59.715Z,21.60
2018-07-26T03:34:27.881Z,21.60
2018-07-26T03:36:56.184Z,21.60
2018-07-26T03:39:24.305Z,21.70
2018-07-26T03:41:52.439Z,21.80
2018-07-26T03:44:20.750Z,21.80
2018-07-26T03:46:48.872Z,21.80
2018-07-26T03:49:17.002Z,21.80
2018-07-26T03:51:45.250Z,21.80
2018-07-26T03:54:13.359Z,21.80
2018-07-26T03:56:41.473Z,21.80
2018-07-26T03:59:09.674Z,21.80
2018-07-26T04:01:37.817Z,21.90
2018-07-26T04:04:06.988Z,21.90
2018-07-26T04:06:35.189Z,21.90
2018-07-26T04:09:03.699Z,21.90
2018-07-26T04:11:31.841Z,21.90
2018-07-26T04:14:00.227Z,21.80
2018-07-26T04:16:28.517Z,21.90
2018-07-26T04:18:56.738Z,21.80
2018-07-26T04:21:25.050Z,21.80
2018-07-26T04:23:53.228Z,21.80
2018-07-26T04:26:21.434Z,21.80
2018-07-26T04:28:49.543Z,21.80
2018-07-26T04:31:17.661Z,21.80
2018-07-26T04:33:45.835Z,21.80
2018-07-26T04:36:14.056Z,21.90
2018-07-26T04:38:42.217Z,21.90
2018-07-26T04:41:10.334Z,21.90
2018-07-26T04:43:38.442Z,21.90
2018-07-26T04:46:06.714Z,21.90
2018-07-26T04:48:35.918Z,22.00
2018-07-26T04:51:04.473Z,22.00
2018-07-26T04:53:32.587Z,22.00
2018-07-26T04:56:00.703Z,22.00
2018-07-26T04:58:29.425Z,22.10
2018-07-26T05:00:57.594Z,22.10
2018-07-26T05:03:26.575Z,22.20
2018-07-26T05:05:54.773Z,22.30
2018-07-26T05:08:23.127Z,22.30
2018-07-26T05:10:51.346Z,22.40
2018-07-26T05:13:19.580Z,22.40
2018-07-26T05:15:47.810Z,22.50
2018-07-26T05:18:16.037Z,22.50
2018-07-26T05:20:44.222Z,22.60
2018-07-26T05:23:12.381Z,22.60
2018-07-26T05:25:40.493Z,22.60
2018-07-26T05:28:08.610Z,22.70
2018-07-26T05:30:36.805Z,22.80
2018-07-26T05:33:05.016Z,22.90
2018-07-26T05:35:33.115Z,22.90
2018-07-26T05:38:01.316Z,23.00
2018-07-26T05:40:29.416Z,23.20
2018-07-26T05:42:57.574Z,23.30
2018-07-26T05:45:25.686Z,23.40
2018-07-26T05:47:54.283Z,23.50
2018-07-26T05:50:22.413Z,23.60
2018-07-26T05:52:50.540Z,23.70
2018-07-26T05:55:18.758Z,23.80
2018-07-26T05:57:46.873Z,24.00
2018-07-26T06:00:15.259Z,24.10
2018-07-26T06:02:43.934Z,24.20
2018-07-26T06:05:12.185Z,24.30
2018-07-26T06:07:40.329Z,24.40
2018-07-26T06:10:09.214Z,24.60
2018-07-26T06:12:37.400Z,24.70
2018-07-26T06:15:07.719Z,24.90
2018-07-26T06:17:35.827Z,25.00
2018-07-26T06:20:06.121Z,25.10
2018-07-26T06:22:34.250Z,25.30
2018-07-26T06:25:02.366Z,25.40
2018-07-26T06:27:30.465Z,25.60
2018-07-26T06:29:58.576Z,25.70
2018-07-26T06:32:26.682Z,25.90
2018-07-26T06:34:54.946Z,26.00
2018-07-26T06:37:23.046Z,26.20
2018-07-26T06:39:51.177Z,26.30
2018-07-26T06:42:19.305Z,26.30
2018-07-26T06:44:47.427Z,26.40
2018-07-26T06:47:15.719Z,26.60
2018-07-26T06:49:43.866Z,26.70
2018-07-26T06:52:11.980Z,26.70
2018-07-26T06:54:40.098Z,26.90
2018-07-26T06:57:08.437Z,27.10
2018-07-26T06:59:36.570Z,27.30
2018-07-26T07:02:04.865Z,27.60
2018-07-26T07:04:32.974Z,27.90
2018-07-26T07:07:01.261Z,28.00
2018-07-26T07:09:29.384Z,28.20
2018-07-26T07:11:57.484Z,28.30
2018-07-26T07:14:25.738Z,28.40
2018-07-26T07:16:53.833Z,28.50
2018-07-26T07:19:21.952Z,28.60
2018-07-26T07:21:50.054Z,28.70
2018-07-26T07:24:20.886Z,29.00
2018-07-26T07:26:50.218Z,29.10
2018-07-26T07:29:18.321Z,29.30
2018-07-26T07:31:46.503Z,29.50
2018-07-26T07:34:14.744Z,29.80
2018-07-26T07:39:12.607Z,30.00
2018-07-26T07:41:40.846Z,30.30
2018-07-26T07:44:09.459Z,30.70
2018-07-26T07:46:38.162Z,30.80
2018-07-26T07:49:06.373Z,31.10
2018-07-26T07:51:34.608Z,31.50
2018-07-26T07:54:02.878Z,31.80
2018-07-26T07:56:31.049Z,31.60
2018-07-26T07:58:59.166Z,31.80
2018-07-26T08:01:27.270Z,32.00
2018-07-26T08:03:55.409Z,31.80
2018-07-26T08:06:23.514Z,31.50
2018-07-26T08:08:52.790Z,31.60
2018-07-26T08:11:20.889Z,31.90
2018-07-26T08:13:50.102Z,32.00
2018-07-26T08:16:18.224Z,32.20
2018-07-26T08:18:46.374Z,32.50
2018-07-26T08:21:14.481Z,32.70
2018-07-26T08:23:42.673Z,32.70
2018-07-26T08:26:10.778Z,33.00
2018-07-26T08:28:38.885Z,33.00
2018-07-26T08:33:35.027Z,33.20
2018-07-26T08:38:31.006Z,33.00
2018-07-26T08:40:59.249Z,33.40
2018-07-26T08:43:27.333Z,33.30
2018-07-26T08:45:55.445Z,33.60
2018-07-26T08:48:23.565Z,34.00
2018-07-26T08:53:19.668Z,34.60
2018-07-26T08:55:47.790Z,34.80
2018-07-26T08:58:15.916Z,35.40
2018-07-26T09:00:44.009Z,35.30
2018-07-26T09:03:12.264Z,35.00
2018-07-26T09:05:40.374Z,35.20
2018-07-26T09:08:08.488Z,35.00
2018-07-26T09:10:36.613Z,35.40
2018-07-26T09:15:32.770Z,35.80
2018-07-26T09:18:00.869Z,36.10
2018-07-26T09:20:29.224Z,36.60
2018-07-26T09:22:57.377Z,36.30
2018-07-26T09:27:53.537Z,37.00
2018-07-26T09:30:21.733Z,37.00
2018-07-26T09:32:49.924Z,37.20
2018-07-26T09:35:18.019Z,37.00
2018-07-26T09:37:46.298Z,37.40
2018-07-26T09:40:14.416Z,37.90
2018-07-26T09:42:42.499Z,37.70
2018-07-26T09:45:10.692Z,37.90
2018-07-26T09:47:38.870Z,37.40
2018-07-26T09:50:07.357Z,37.20
2018-07-26T09:52:35.448Z,37.60
2018-07-26T09:55:03.632Z,37.90
2018-07-26T09:57:31.899Z,38.10
2018-07-26T10:00:00.033Z,38.20
2018-07-26T10:02:28.120Z,37.80
2018-07-26T10:04:56.293Z,37.70
2018-07-26T10:07:24.547Z,37.50
2018-07-26T10:09:52.641Z,37.40
2018-07-26T10:12:20.753Z,37.70
2018-07-26T10:14:48.882Z,37.90
2018-07-26T10:17:17.093Z,38.10
2018-07-26T10:19:45.344Z,37.60
2018-07-26T10:22:13.499Z,37.70
2018-07-26T10:24:41.605Z,37.90
2018-07-26T10:27:09.746Z,37.80
2018-07-26T10:29:37.844Z,37.70
2018-07-26T10:32:06.007Z,37.40
2018-07-26T10:34:34.117Z,37.60
2018-07-26T10:39:30.292Z,38.00
2018-07-26T10:41:58.434Z,38.20
2018-07-26T10:44:27.752Z,38.00
2018-07-26T10:46:55.999Z,38.00
2018-07-26T10:49:24.258Z,37.60
2018-07-26T10:51:52.386Z,37.70
2018-07-26T10:54:20.620Z,37.70
2018-07-26T10:56:48.721Z,38.20
2018-07-26T10:59:16.831Z,38.50
2018-07-26T11:01:44.957Z,38.60
2018-07-26T11:04:13.065Z,38.70
2018-07-26T11:06:41.265Z,38.60
2018-07-26T11:09:09.945Z,38.90
2018-07-26T11:11:38.102Z,38.90
2018-07-26T11:14:06.605Z,39.10
2018-07-26T11:16:34.755Z,38.90
2018-07-26T11:19:02.888Z,38.90
2018-07-26T11:21:30.951Z,39.10
2018-07-26T11:28:55.110Z,39.20
2018-07-26T11:31:23.302Z,38.80
2018-07-26T11:33:51.397Z,38.70
2018-07-26T11:36:19.530Z,38.70
2018-07-26T11:38:47.662Z,38.60
2018-07-26T11:41:15.764Z,38.30
2018-07-26T11:43:44.045Z,38.40
2018-07-26T11:46:12.149Z,38.40
2018-07-26T11:48:40.260Z,38.40
2018-07-26T11:53:36.386Z,38.00
2018-07-26T11:56:04.559Z,37.80
2018-07-26T11:58:32.710Z,37.80
2018-07-26T12:01:00.857Z,37.70
2018-07-26T12:03:28.966Z,37.60
2018-07-26T12:05:57.130Z,37.40
2018-07-26T12:08:25.222Z,37.30
2018-07-26T12:10:53.329Z,37.20
2018-07-26T12:13:21.440Z,36.80
2018-07-26T12:15:49.536Z,36.50
2018-07-26T12:18:17.646Z,36.50
2018-07-26T12:20:45.761Z,36.40
2018-07-26T12:23:13.963Z,36.30
2018-07-26T12:25:42.041Z,36.10
2018-07-26T12:28:10.198Z,36.20
2018-07-26T12:30:38.355Z,36.20
2018-07-26T12:33:06.461Z,36.00
2018-07-26T12:35:34.579Z,36.00
2018-07-26T12:38:02.669Z,36.00
2018-07-26T12:40:30.841Z,35.80
2018-07-26T12:42:59.017Z,35.80
2018-07-26T12:45:27.122Z,35.80
2018-07-26T12:47:55.269Z,35.70
2018-07-26T12:50:23.341Z,35.70
2018-07-26T12:52:51.436Z,35.70
2018-07-26T12:55:19.541Z,35.40
2018-07-26T12:57:47.678Z,35.50
2018-07-26T13:00:16.686Z,35.60
2018-07-26T13:02:44.795Z,35.50
2018-07-26T13:05:12.992Z,35.50
2018-07-26T13:07:41.170Z,35.60
2018-07-26T13:10:09.301Z,35.70
2018-07-26T13:12:37.517Z,35.70
2018-07-26T13:15:05.858Z,35.70
2018-07-26T13:17:33.974Z,35.60
2018-07-26T13:20:02.138Z,35.50
2018-07-26T13:22:30.237Z,35.60
2018-07-26T13:24:58.333Z,35.40
2018-07-26T13:27:26.562Z,35.30
2018-07-26T13:29:54.668Z,35.20
2018-07-26T13:32:22.790Z,35.30
2018-07-26T13:34:50.915Z,35.30
2018-07-26T13:37:19.051Z,35.40
2018-07-26T13:39:47.151Z,35.40
2018-07-26T13:42:16.048Z,35.30
2018-07-26T13:44:44.175Z,35.40
2018-07-26T13:47:12.442Z,35.30
2018-07-26T13:49:40.525Z,35.40
2018-07-26T13:52:08.643Z,35.30
2018-07-26T13:54:36.726Z,35.30
2018-07-26T13:57:04.882Z,35.30
2018-07-26T13:59:33.008Z,35.20
2018-07-26T14:02:01.185Z,35.10
2018-07-26T14:04:29.282Z,35.10
2018-07-26T14:06:57.445Z,35.10
2018-07-26T14:09:25.596Z,35.00
2018-07-26T14:11:53.919Z,35.00
2018-07-26T14:14:22.015Z,35.10
2018-07-26T14:19:18.168Z,35.00
2018-07-26T14:21:46.285Z,34.90
2018-07-26T14:24:19.927Z,34.80
2018-07-26T14:26:48.037Z,35.00
2018-07-26T14:29:16.190Z,34.90
2018-07-26T14:31:44.353Z,34.90
2018-07-26T14:36:40.709Z,34.80
2018-07-26T14:39:09.954Z,34.70
2018-07-26T14:41:38.354Z,34.70
2018-07-26T14:44:06.572Z,34.80
2018-07-26T14:46:34.680Z,34.80
2018-07-26T14:49:03.026Z,34.90
2018-07-26T14:51:31.577Z,35.00
2018-07-26T14:53:59.683Z,34.90
2018-07-26T14:56:28.020Z,34.90
2018-07-26T14:58:56.122Z,34.90
2018-07-26T15:03:52.190Z,35.00
2018-07-26T15:06:19.892Z,35.00
2018-07-26T15:08:47.377Z,35.10
2018-07-26T15:11:14.900Z,35.00
2018-07-26T15:13:42.365Z,35.10
2018-07-26T15:16:09.802Z,35.30
2018-07-26T15:18:37.462Z,35.40
2018-07-26T15:21:05.010Z,35.50
2018-07-26T15:23:32.571Z,35.50
2018-07-26T15:26:00.126Z,35.50
2018-07-26T15:28:29.571Z,35.50
2018-07-26T15:30:57.184Z,35.70
2018-07-26T15:33:24.632Z,35.40
2018-07-26T15:35:52.199Z,35.40
2018-07-26T15:38:19.773Z,35.50
2018-07-26T15:40:47.268Z,35.40
2018-07-26T15:43:14.953Z,35.40
2018-07-26T15:45:42.445Z,35.50
2018-07-26T15:48:10.053Z,35.60
2018-07-26T15:50:37.678Z,35.60
2018-07-26T15:53:05.111Z,35.50
2018-07-26T15:55:32.769Z,35.50
2018-07-26T15:58:00.178Z,35.40
2018-07-26T16:00:27.608Z,35.40
2018-07-26T16:02:55.076Z,35.40
2018-07-26T16:05:22.742Z,35.40
2018-07-26T16:07:50.213Z,35.30
2018-07-26T16:10:17.836Z,35.30
2018-07-26T16:12:45.411Z,35.40
2018-07-26T16:15:12.868Z,35.20
2018-07-26T16:17:40.574Z,35.10
2018-07-26T16:20:08.545Z,35.10
2018-07-26T16:22:36.185Z,35.10
2018-07-26T16:25:04.561Z,35.20
2018-07-26T16:27:32.041Z,35.10
2018-07-26T16:29:59.676Z,35.10
2018-07-26T16:32:27.091Z,35.00
2018-07-26T16:34:54.530Z,35.00
2018-07-26T16:37:22.130Z,35.00
2018-07-26T16:39:50.719Z,35.10
2018-07-26T16:42:18.137Z,35.00
2018-07-26T16:44:45.716Z,35.00
2018-07-26T16:47:13.289Z,35.10
2018-07-26T16:49:40.704Z,35.00
2018-07-26T16:52:08.145Z,34.90
2018-07-26T16:54:35.629Z,35.00
2018-07-26T16:59:30.385Z,35.00
2018-07-26T17:01:57.910Z,34.90
2018-07-26T17:04:25.430Z,34.80
2018-07-26T17:06:52.932Z,34.70
2018-07-26T17:09:20.716Z,34.70
2018-07-26T17:11:48.148Z,34.70
2018-07-26T17:14:16.404Z,34.60
2018-07-26T17:16:43.890Z,34.70
2018-07-26T17:19:11.375Z,34.70
2018-07-26T17:21:38.785Z,34.70
2018-07-26T17:24:08.493Z,34.40
2018-07-26T17:26:35.976Z,34.30
2018-07-26T17:29:03.520Z,34.20
2018-07-26T17:31:30.998Z,34.10
2018-07-26T17:33:58.657Z,34.10
2018-07-26T17:36:26.127Z,34.10
2018-07-26T17:38:53.561Z,34.00
2018-07-26T17:41:21.127Z,33.90
2018-07-26T17:43:48.611Z,33.80
2018-07-26T17:46:16.081Z,33.70
2018-07-26T17:48:43.520Z,33.70
2018-07-26T17:51:11.038Z,33.70
2018-07-26T17:53:41.730Z,33.60
2018-07-26T17:56:09.848Z,33.60
2018-07-26T17:58:38.012Z,33.60
2018-07-26T18:01:05.430Z,33.50
2018-07-26T18:03:32.873Z,33.50
2018-07-26T18:06:03.857Z,33.50
2018-07-26T18:11:17.037Z,33.30
2018-07-26T18:13:44.475Z,33.30
2018-07-26T18:16:11.957Z,33.40
2018-07-26T18:18:39.422Z,33.30
2018-07-26T18:21:06.924Z,33.30
2018-07-26T18:23:34.383Z,33.40
2018-07-26T18:26:01.844Z,33.30
2018-07-26T18:28:29.349Z,33.30
2018-07-26T18:30:56.898Z,33.30
2018-07-26T18:33:24.403Z,33.30
2018-07-26T18:35:51.915Z,33.20
2018-07-26T18:38:19.630Z,33.10
2018-07-26T18:40:47.127Z,33.00
2018-07-26T18:43:14.600Z,32.90
2018-07-26T18:45:42.165Z,32.60
2018-07-26T18:48:09.597Z,32.50
2018-07-26T18:50:37.029Z,32.40
2018-07-26T18:53:05.598Z,32.30
2018-07-26T18:55:33.121Z,32.20
2018-07-26T18:58:00.671Z,32.00
2018-07-26T19:00:28.109Z,31.80
2018-07-26T19:02:55.532Z,31.70
2018-07-26T19:05:22.977Z,31.50
2018-07-26T19:07:50.822Z,31.30
2018-07-26T19:10:18.371Z,31.00
2018-07-26T19:12:45.953Z,30.80
2018-07-26T19:15:13.380Z,30.70
2018-07-26T19:17:40.826Z,30.70
2018-07-26T19:20:09.992Z,30.50
2018-07-26T19:22:38.049Z,30.40
2018-07-26T19:25:05.829Z,30.40
2018-07-26T19:30:01.984Z,30.20
2018-07-26T19:32:29.565Z,30.00
2018-07-26T19:34:57.136Z,30.00
2018-07-26T19:37:24.754Z,30.00
2018-07-26T19:39:52.466Z,29.90
2018-07-26T19:42:20.025Z,29.80
2018-07-26T19:44:47.681Z,29.70
2018-07-26T19:47:15.130Z,29.70
2018-07-26T19:49:42.621Z,29.70
2018-07-26T21:41:12.709Z,29.60
2018-07-26T21:43:40.200Z,26.40
2018-07-26T21:46:07.646Z,26.30
2018-07-26T21:48:41.213Z,26.30
2018-07-26T21:51:08.654Z,26.40
2018-07-26T21:53:36.340Z,26.30
2018-07-26T21:56:03.781Z,26.40
2018-07-26T21:58:31.223Z,26.40
2018-07-26T22:00:59.321Z,26.40
2018-07-26T22:03:28.208Z,26.40
2018-07-26T22:06:13.867Z,26.40
2018-07-26T22:08:41.365Z,26.40
2018-07-26T22:11:08.764Z,26.40
2018-07-26T22:13:36.206Z,26.30
2018-07-26T22:16:03.817Z,26.30
2018-07-26T22:18:31.218Z,26.30
2018-07-26T22:20:58.689Z,26.10
2018-07-26T22:23:26.161Z,26.10
2018-07-26T22:25:53.725Z,26.00
2018-07-26T22:28:21.167Z,25.90
2018-07-26T22:30:48.738Z,25.90
2018-07-26T22:33:16.180Z,25.80
2018-07-26T22:35:43.902Z,25.60
2018-07-26T22:38:12.306Z,25.60
2018-07-26T22:40:39.737Z,25.60
2018-07-26T22:43:07.692Z,25.50
2018-07-26T22:45:35.573Z,25.50
2018-07-26T22:48:03.234Z,25.40
2018-07-26T22:50:30.899Z,25.30
2018-07-26T22:52:58.320Z,25.30
2018-07-26T22:55:25.752Z,25.20
2018-07-26T22:57:53.309Z,25.10
2018-07-26T23:00:20.772Z,25.20
2018-07-26T23:02:48.347Z,25.10
2018-07-26T23:05:15.802Z,25.00
2018-07-26T23:07:43.394Z,25.00
2018-07-26T23:10:11.299Z,24.90
2018-07-26T23:12:39.189Z,24.90
2018-07-26T23:15:07.077Z,24.90
2018-07-26T23:17:34.505Z,24.90
2018-07-26T23:20:01.947Z,24.90
2018-07-26T23:22:29.413Z,24.90
2018-07-26T23:24:56.853Z,25.00
2018-07-26T23:27:24.320Z,25.10
2018-07-26T23:29:51.748Z,25.10
2018-07-26T23:32:19.172Z,25.10
2018-07-26T23:34:46.600Z,25.10
2018-07-26T23:37:14.053Z,25.10
2018-07-26T23:39:41.525Z,25.10
2018-07-26T23:42:09.054Z,25.10
2018-07-26T23:44:36.492Z,25.20
2018-07-26T23:47:04.102Z,25.20
2018-07-26T23:49:31.529Z,25.20
2018-07-26T23:51:59.013Z,25.20
2018-07-26T23:54:26.457Z,25.20
2018-07-26T23:56:53.903Z,25.20
2018-07-26T23:59:21.477Z,25.20
